sensor_id;sensor_type;location;lat;lon;timestamp;P1;durP1;ratioP1;P2;durP2;ratioP2
62798;SDS011;48842;51.046;13.796;2023-07-30T00:01:11;3.90;;;3.60;;
62798;SDS011;48842;51.046;13.796;2023-07-30T00:03:36;3.80;;;3.20;;
62798;SDS011;48842;51.046;13.796;2023-07-30T00:06:02;4.27;;;3.20;;
62798;SDS011;48842;51.046;13.796;2023-07-30T00:08:27;4.80;;;3.30;;
62798;SDS011;48842;51.046;13.796;2023-07-30T00:10:52;4.50;;;4.10;;
62798;SDS011;48842;51.046;13.796;2023-07-30T00:13:18;11.10;;;4.23;;
62798;SDS011;48842;51.046;13.796;2023-07-30T00:15:45;3.73;;;3.43;;
62798;SDS011;48842;51.046;13.796;2023-07-30T00:18:11;6.33;;;3.60;;
62798;SDS011;48842;51.046;13.796;2023-07-30T00:20:36;7.83;;;3.60;;
62798;SDS011;48842;51.046;13.796;2023-07-30T00:23:01;7.33;;;3.17;;
62798;SDS011;48842;51.046;13.796;2023-07-30T00:25:26;6.50;;;3.80;;
62798;SDS011;48842;51.046;13.796;2023-07-30T00:27:52;5.10;;;3.20;;
62798;SDS011;48842;51.046;13.796;2023-07-30T00:30:17;4.57;;;3.27;;
62798;SDS011;48842;51.046;13.796;2023-07-30T00:32:42;3.83;;;2.70;;
62798;SDS011;48842;51.046;13.796;2023-07-30T00:35:08;3.60;;;3.20;;
62798;SDS011;48842;51.046;13.796;2023-07-30T00:37:34;7.30;;;3.40;;
62798;SDS011;48842;51.046;13.796;2023-07-30T00:40:00;5.23;;;3.60;;
62798;SDS011;48842;51.046;13.796;2023-07-30T00:42:25;4.50;;;3.17;;
62798;SDS011;48842;51.046;13.796;2023-07-30T00:44:50;3.43;;;2.73;;
62798;SDS011;48842;51.046;13.796;2023-07-30T00:47:15;3.30;;;2.90;;
62798;SDS011;48842;51.046;13.796;2023-07-30T00:49:41;2.97;;;2.77;;
62798;SDS011;48842;51.046;13.796;2023-07-30T00:52:06;3.77;;;2.97;;
62798;SDS011;48842;51.046;13.796;2023-07-30T00:54:32;5.10;;;3.00;;
62798;SDS011;48842;51.046;13.796;2023-07-30T00:56:58;4.53;;;3.30;;
62798;SDS011;48842;51.046;13.796;2023-07-30T00:59:23;4.10;;;2.80;;
62798;SDS011;48842;51.046;13.796;2023-07-30T01:01:48;2.40;;;2.20;;
62798;SDS011;48842;51.046;13.796;2023-07-30T01:04:16;6.67;;;3.43;;
62798;SDS011;48842;51.046;13.796;2023-07-30T01:06:43;3.57;;;2.83;;
62798;SDS011;48842;51.046;13.796;2023-07-30T01:09:08;2.70;;;2.50;;
62798;SDS011;48842;51.046;13.796;2023-07-30T01:11:35;4.97;;;2.60;;
62798;SDS011;48842;51.046;13.796;2023-07-30T01:14:02;5.00;;;3.50;;
62798;SDS011;48842;51.046;13.796;2023-07-30T01:16:28;5.30;;;2.80;;
62798;SDS011;48842;51.046;13.796;2023-07-30T01:18:53;5.70;;;3.20;;
62798;SDS011;48842;51.046;13.796;2023-07-30T01:21:19;7.73;;;3.00;;
62798;SDS011;48842;51.046;13.796;2023-07-30T01:23:44;4.10;;;2.87;;
62798;SDS011;48842;51.046;13.796;2023-07-30T01:26:12;5.70;;;3.13;;
62798;SDS011;48842;51.046;13.796;2023-07-30T01:28:47;3.57;;;2.67;;
62798;SDS011;48842;51.046;13.796;2023-07-30T01:31:14;2.40;;;2.20;;
62798;SDS011;48842;51.046;13.796;2023-07-30T01:33:41;6.13;;;3.00;;
62798;SDS011;48842;51.046;13.796;2023-07-30T01:36:07;2.90;;;2.70;;
62798;SDS011;48842;51.046;13.796;2023-07-30T01:38:36;3.73;;;3.33;;
62798;SDS011;48842;51.046;13.796;2023-07-30T01:41:03;2.70;;;2.50;;
62798;SDS011;48842;51.046;13.796;2023-07-30T01:43:29;3.30;;;2.60;;
62798;SDS011;48842;51.046;13.796;2023-07-30T01:45:54;5.17;;;2.80;;
62798;SDS011;48842;51.046;13.796;2023-07-30T01:48:19;5.40;;;2.53;;
62798;SDS011;48842;51.046;13.796;2023-07-30T01:50:44;6.60;;;2.47;;
62798;SDS011;48842;51.046;13.796;2023-07-30T01:53:13;2.40;;;2.20;;
62798;SDS011;48842;51.046;13.796;2023-07-30T01:55:39;3.33;;;2.10;;
62798;SDS011;48842;51.046;13.796;2023-07-30T01:58:08;2.13;;;2.03;;
62798;SDS011;48842;51.046;13.796;2023-07-30T02:00:34;3.33;;;2.63;;
62798;SDS011;48842;51.046;13.796;2023-07-30T02:02:59;4.80;;;2.83;;
62798;SDS011;48842;51.046;13.796;2023-07-30T02:05:24;2.67;;;2.47;;
62798;SDS011;48842;51.046;13.796;2023-07-30T02:07:50;3.53;;;2.63;;
62798;SDS011;48842;51.046;13.796;2023-07-30T02:10:15;2.80;;;2.60;;
62798;SDS011;48842;51.046;13.796;2023-07-30T02:12:40;4.80;;;2.97;;
62798;SDS011;48842;51.046;13.796;2023-07-30T02:15:06;9.40;;;3.17;;
62798;SDS011;48842;51.046;13.796;2023-07-30T02:17:31;7.33;;;2.37;;
62798;SDS011;48842;51.046;13.796;2023-07-30T02:19:56;2.30;;;2.13;;
62798;SDS011;48842;51.046;13.796;2023-07-30T02:22:22;3.80;;;3.20;;
62798;SDS011;48842;51.046;13.796;2023-07-30T02:24:47;4.07;;;2.50;;
62798;SDS011;48842;51.046;13.796;2023-07-30T02:27:12;3.40;;;2.50;;
62798;SDS011;48842;51.046;13.796;2023-07-30T02:29:37;2.60;;;2.40;;
62798;SDS011;48842;51.046;13.796;2023-07-30T02:32:03;3.20;;;2.40;;
62798;SDS011;48842;51.046;13.796;2023-07-30T02:34:28;3.37;;;2.70;;
62798;SDS011;48842;51.046;13.796;2023-07-30T02:36:53;2.73;;;2.53;;
62798;SDS011;48842;51.046;13.796;2023-07-30T02:39:19;2.43;;;2.23;;
62798;SDS011;48842;51.046;13.796;2023-07-30T02:41:45;4.07;;;3.10;;
62798;SDS011;48842;51.046;13.796;2023-07-30T02:44:10;4.00;;;2.57;;
62798;SDS011;48842;51.046;13.796;2023-07-30T02:46:35;6.03;;;2.70;;
62798;SDS011;48842;51.046;13.796;2023-07-30T02:49:01;8.53;;;2.40;;
62798;SDS011;48842;51.046;13.796;2023-07-30T02:51:26;6.83;;;2.20;;
62798;SDS011;48842;51.046;13.796;2023-07-30T02:53:52;3.30;;;2.77;;
62798;SDS011;48842;51.046;13.796;2023-07-30T02:56:18;6.60;;;2.50;;
62798;SDS011;48842;51.046;13.796;2023-07-30T02:58:43;6.07;;;2.63;;
62798;SDS011;48842;51.046;13.796;2023-07-30T03:01:08;2.40;;;2.30;;
62798;SDS011;48842;51.046;13.796;2023-07-30T03:03:34;2.63;;;2.30;;
62798;SDS011;48842;51.046;13.796;2023-07-30T03:05:59;5.33;;;2.73;;
62798;SDS011;48842;51.046;13.796;2023-07-30T03:08:25;3.00;;;2.80;;
62798;SDS011;48842;51.046;13.796;2023-07-30T03:10:50;4.30;;;2.20;;
62798;SDS011;48842;51.046;13.796;2023-07-30T03:13:15;2.43;;;2.23;;
62798;SDS011;48842;51.046;13.796;2023-07-30T03:15:40;3.70;;;3.07;;
62798;SDS011;48842;51.046;13.796;2023-07-30T03:18:06;3.00;;;2.70;;
62798;SDS011;48842;51.046;13.796;2023-07-30T03:20:31;5.80;;;2.73;;
62798;SDS011;48842;51.046;13.796;2023-07-30T03:22:56;8.80;;;3.47;;
62798;SDS011;48842;51.046;13.796;2023-07-30T03:25:21;3.50;;;2.30;;
62798;SDS011;48842;51.046;13.796;2023-07-30T03:27:47;4.87;;;3.00;;
62798;SDS011;48842;51.046;13.796;2023-07-30T03:30:12;5.30;;;3.33;;
62798;SDS011;48842;51.046;13.796;2023-07-30T03:32:37;2.50;;;2.40;;
62798;SDS011;48842;51.046;13.796;2023-07-30T03:35:02;2.90;;;2.70;;
62798;SDS011;48842;51.046;13.796;2023-07-30T03:37:28;2.97;;;2.77;;
62798;SDS011;48842;51.046;13.796;2023-07-30T03:39:53;3.23;;;3.03;;
62798;SDS011;48842;51.046;13.796;2023-07-30T03:42:19;3.33;;;2.70;;
62798;SDS011;48842;51.046;13.796;2023-07-30T03:44:44;3.10;;;2.80;;
62798;SDS011;48842;51.046;13.796;2023-07-30T03:47:09;3.03;;;2.83;;
62798;SDS011;48842;51.046;13.796;2023-07-30T03:49:34;2.93;;;2.60;;
62798;SDS011;48842;51.046;13.796;2023-07-30T03:51:59;2.93;;;2.73;;
62798;SDS011;48842;51.046;13.796;2023-07-30T03:54:25;3.10;;;2.80;;
62798;SDS011;48842;51.046;13.796;2023-07-30T03:56:50;2.73;;;2.60;;
62798;SDS011;48842;51.046;13.796;2023-07-30T03:59:15;2.77;;;2.60;;
62798;SDS011;48842;51.046;13.796;2023-07-30T04:01:40;3.57;;;2.70;;
62798;SDS011;48842;51.046;13.796;2023-07-30T04:04:06;2.73;;;2.53;;
62798;SDS011;48842;51.046;13.796;2023-07-30T04:06:31;2.73;;;2.40;;
62798;SDS011;48842;51.046;13.796;2023-07-30T04:08:56;4.40;;;3.33;;
62798;SDS011;48842;51.046;13.796;2023-07-30T04:11:21;3.63;;;3.17;;
62798;SDS011;48842;51.046;13.796;2023-07-30T04:13:47;5.50;;;2.90;;
62798;SDS011;48842;51.046;13.796;2023-07-30T04:16:12;5.00;;;3.80;;
62798;SDS011;48842;51.046;13.796;2023-07-30T04:18:37;9.93;;;3.40;;
62798;SDS011;48842;51.046;13.796;2023-07-30T04:21:02;4.20;;;3.20;;
62798;SDS011;48842;51.046;13.796;2023-07-30T04:23:28;3.93;;;3.40;;
62798;SDS011;48842;51.046;13.796;2023-07-30T04:25:53;3.53;;;3.33;;
62798;SDS011;48842;51.046;13.796;2023-07-30T04:28:18;3.17;;;3.00;;
62798;SDS011;48842;51.046;13.796;2023-07-30T04:30:44;3.67;;;3.47;;
62798;SDS011;48842;51.046;13.796;2023-07-30T04:33:11;3.80;;;3.07;;
62798;SDS011;48842;51.046;13.796;2023-07-30T04:35:36;4.27;;;3.67;;
62798;SDS011;48842;51.046;13.796;2023-07-30T04:38:01;4.23;;;3.67;;
62798;SDS011;48842;51.046;13.796;2023-07-30T04:40:27;4.00;;;3.63;;
62798;SDS011;48842;51.046;13.796;2023-07-30T04:42:52;4.00;;;3.30;;
62798;SDS011;48842;51.046;13.796;2023-07-30T04:45:17;4.43;;;3.37;;
62798;SDS011;48842;51.046;13.796;2023-07-30T04:47:42;4.33;;;3.53;;
62798;SDS011;48842;51.046;13.796;2023-07-30T04:50:08;3.43;;;3.23;;
62798;SDS011;48842;51.046;13.796;2023-07-30T04:52:33;3.90;;;3.30;;
62798;SDS011;48842;51.046;13.796;2023-07-30T04:54:58;3.80;;;3.27;;
62798;SDS011;48842;51.046;13.796;2023-07-30T04:57:23;3.30;;;3.10;;
62798;SDS011;48842;51.046;13.796;2023-07-30T04:59:49;5.07;;;4.00;;
62798;SDS011;48842;51.046;13.796;2023-07-30T05:02:14;6.43;;;4.00;;
62798;SDS011;48842;51.046;13.796;2023-07-30T05:04:39;4.97;;;3.33;;
62798;SDS011;48842;51.046;13.796;2023-07-30T05:07:04;7.20;;;3.80;;
62798;SDS011;48842;51.046;13.796;2023-07-30T05:09:30;3.80;;;3.50;;
62798;SDS011;48842;51.046;13.796;2023-07-30T05:11:55;4.80;;;3.57;;
62798;SDS011;48842;51.046;13.796;2023-07-30T05:14:20;4.67;;;4.20;;
62798;SDS011;48842;51.046;13.796;2023-07-30T05:16:45;4.33;;;4.00;;
62798;SDS011;48842;51.046;13.796;2023-07-30T05:19:11;3.77;;;3.40;;
62798;SDS011;48842;51.046;13.796;2023-07-30T05:21:36;5.27;;;4.20;;
62798;SDS011;48842;51.046;13.796;2023-07-30T05:24:02;6.70;;;3.90;;
62798;SDS011;48842;51.046;13.796;2023-07-30T05:26:27;4.27;;;3.87;;
62798;SDS011;48842;51.046;13.796;2023-07-30T05:28:52;4.20;;;3.80;;
62798;SDS011;48842;51.046;13.796;2023-07-30T05:31:18;4.57;;;3.77;;
62798;SDS011;48842;51.046;13.796;2023-07-30T05:33:43;3.93;;;3.63;;
62798;SDS011;48842;51.046;13.796;2023-07-30T05:36:08;4.17;;;3.60;;
62798;SDS011;48842;51.046;13.796;2023-07-30T05:38:33;3.77;;;3.47;;
62798;SDS011;48842;51.046;13.796;2023-07-30T05:40:58;3.50;;;3.30;;
62798;SDS011;48842;51.046;13.796;2023-07-30T05:43:24;3.70;;;3.40;;
62798;SDS011;48842;51.046;13.796;2023-07-30T05:45:49;6.13;;;3.63;;
62798;SDS011;48842;51.046;13.796;2023-07-30T05:48:14;4.47;;;4.07;;
62798;SDS011;48842;51.046;13.796;2023-07-30T05:50:39;4.10;;;3.77;;
62798;SDS011;48842;51.046;13.796;2023-07-30T05:53:05;6.00;;;3.70;;
62798;SDS011;48842;51.046;13.796;2023-07-30T05:55:30;3.33;;;3.10;;
62798;SDS011;48842;51.046;13.796;2023-07-30T05:57:56;6.33;;;4.00;;
62798;SDS011;48842;51.046;13.796;2023-07-30T06:00:21;3.33;;;3.03;;
62798;SDS011;48842;51.046;13.796;2023-07-30T06:02:46;5.43;;;3.70;;
62798;SDS011;48842;51.046;13.796;2023-07-30T06:05:11;4.27;;;3.77;;
62798;SDS011;48842;51.046;13.796;2023-07-30T06:07:37;4.37;;;3.00;;
62798;SDS011;48842;51.046;13.796;2023-07-30T06:10:02;5.27;;;2.80;;
62798;SDS011;48842;51.046;13.796;2023-07-30T06:12:27;3.20;;;2.93;;
62798;SDS011;48842;51.046;13.796;2023-07-30T06:14:53;3.30;;;2.83;;
62798;SDS011;48842;51.046;13.796;2023-07-30T06:17:18;5.87;;;3.37;;
62798;SDS011;48842;51.046;13.796;2023-07-30T06:19:43;4.77;;;3.03;;
62798;SDS011;48842;51.046;13.796;2023-07-30T06:22:08;4.93;;;3.30;;
62798;SDS011;48842;51.046;13.796;2023-07-30T06:24:33;6.20;;;3.17;;
62798;SDS011;48842;51.046;13.796;2023-07-30T06:26:59;4.07;;;3.60;;
62798;SDS011;48842;51.046;13.796;2023-07-30T06:29:24;2.83;;;2.60;;
62798;SDS011;48842;51.046;13.796;2023-07-30T06:31:49;3.30;;;3.07;;
62798;SDS011;48842;51.046;13.796;2023-07-30T06:34:15;3.13;;;2.93;;
62798;SDS011;48842;51.046;13.796;2023-07-30T06:36:40;3.20;;;2.90;;
62798;SDS011;48842;51.046;13.796;2023-07-30T06:39:05;3.50;;;3.20;;
62798;SDS011;48842;51.046;13.796;2023-07-30T06:41:30;4.07;;;2.87;;
62798;SDS011;48842;51.046;13.796;2023-07-30T06:43:56;3.13;;;2.90;;
62798;SDS011;48842;51.046;13.796;2023-07-30T06:46:21;2.80;;;2.60;;
62798;SDS011;48842;51.046;13.796;2023-07-30T06:48:46;4.77;;;2.70;;
62798;SDS011;48842;51.046;13.796;2023-07-30T06:51:11;5.37;;;2.57;;
62798;SDS011;48842;51.046;13.796;2023-07-30T06:53:39;2.60;;;2.50;;
62798;SDS011;48842;51.046;13.796;2023-07-30T06:56:05;3.27;;;3.00;;
62798;SDS011;48842;51.046;13.796;2023-07-30T06:58:30;3.60;;;3.30;;
62798;SDS011;48842;51.046;13.796;2023-07-30T07:00:55;3.37;;;3.03;;
62798;SDS011;48842;51.046;13.796;2023-07-30T07:03:20;3.73;;;2.77;;
62798;SDS011;48842;51.046;13.796;2023-07-30T07:05:52;6.00;;;3.43;;
62798;SDS011;48842;51.046;13.796;2023-07-30T07:08:19;5.07;;;3.00;;
62798;SDS011;48842;51.046;13.796;2023-07-30T07:10:44;2.90;;;2.70;;
62798;SDS011;48842;51.046;13.796;2023-07-30T07:13:09;3.83;;;2.90;;
62798;SDS011;48842;51.046;13.796;2023-07-30T07:15:35;5.00;;;2.57;;
62798;SDS011;48842;51.046;13.796;2023-07-30T07:18:00;3.20;;;2.83;;
62798;SDS011;48842;51.046;13.796;2023-07-30T07:20:29;3.77;;;2.67;;
62798;SDS011;48842;51.046;13.796;2023-07-30T07:22:54;3.10;;;2.83;;
62798;SDS011;48842;51.046;13.796;2023-07-30T07:25:19;2.83;;;2.63;;
62798;SDS011;48842;51.046;13.796;2023-07-30T07:27:46;2.93;;;2.67;;
62798;SDS011;48842;51.046;13.796;2023-07-30T07:30:11;6.03;;;3.30;;
62798;SDS011;48842;51.046;13.796;2023-07-30T07:32:36;2.90;;;2.70;;
62798;SDS011;48842;51.046;13.796;2023-07-30T07:35:04;9.20;;;2.90;;
62798;SDS011;48842;51.046;13.796;2023-07-30T07:37:30;5.10;;;3.37;;
62798;SDS011;48842;51.046;13.796;2023-07-30T07:39:56;6.77;;;2.90;;
62798;SDS011;48842;51.046;13.796;2023-07-30T07:42:22;4.17;;;3.00;;
62798;SDS011;48842;51.046;13.796;2023-07-30T07:44:47;6.73;;;2.63;;
62798;SDS011;48842;51.046;13.796;2023-07-30T07:47:12;3.17;;;2.97;;
62798;SDS011;48842;51.046;13.796;2023-07-30T07:49:38;4.33;;;2.47;;
62798;SDS011;48842;51.046;13.796;2023-07-30T07:52:03;3.00;;;2.80;;
62798;SDS011;48842;51.046;13.796;2023-07-30T07:54:28;2.73;;;2.53;;
62798;SDS011;48842;51.046;13.796;2023-07-30T07:56:54;3.07;;;2.40;;
62798;SDS011;48842;51.046;13.796;2023-07-30T07:59:19;4.00;;;3.40;;
62798;SDS011;48842;51.046;13.796;2023-07-30T08:01:44;3.40;;;2.80;;
62798;SDS011;48842;51.046;13.796;2023-07-30T08:04:09;4.20;;;2.53;;
62798;SDS011;48842;51.046;13.796;2023-07-30T08:06:35;3.20;;;2.93;;
62798;SDS011;48842;51.046;13.796;2023-07-30T08:09:00;3.53;;;2.83;;
62798;SDS011;48842;51.046;13.796;2023-07-30T08:11:25;3.70;;;2.67;;
62798;SDS011;48842;51.046;13.796;2023-07-30T08:13:50;2.33;;;2.23;;
62798;SDS011;48842;51.046;13.796;2023-07-30T08:16:16;4.30;;;3.10;;
62798;SDS011;48842;51.046;13.796;2023-07-30T08:18:41;5.13;;;2.77;;
62798;SDS011;48842;51.046;13.796;2023-07-30T08:21:06;2.80;;;2.60;;
62798;SDS011;48842;51.046;13.796;2023-07-30T08:23:32;3.80;;;2.90;;
62798;SDS011;48842;51.046;13.796;2023-07-30T08:25:57;3.20;;;2.90;;
62798;SDS011;48842;51.046;13.796;2023-07-30T08:28:22;3.10;;;2.80;;
62798;SDS011;48842;51.046;13.796;2023-07-30T08:30:47;4.90;;;2.77;;
62798;SDS011;48842;51.046;13.796;2023-07-30T08:33:13;3.03;;;2.63;;
62798;SDS011;48842;51.046;13.796;2023-07-30T08:35:38;2.30;;;2.17;;
62798;SDS011;48842;51.046;13.796;2023-07-30T08:38:04;7.43;;;2.60;;
62798;SDS011;48842;51.046;13.796;2023-07-30T08:40:29;2.60;;;2.40;;
62798;SDS011;48842;51.046;13.796;2023-07-30T08:42:54;2.50;;;2.40;;
62798;SDS011;48842;51.046;13.796;2023-07-30T08:45:20;2.63;;;2.43;;
62798;SDS011;48842;51.046;13.796;2023-07-30T08:47:45;3.17;;;1.90;;
62798;SDS011;48842;51.046;13.796;2023-07-30T08:50:11;3.07;;;2.70;;
62798;SDS011;48842;51.046;13.796;2023-07-30T08:52:37;2.50;;;1.97;;
62798;SDS011;48842;51.046;13.796;2023-07-30T08:55:04;3.33;;;1.90;;
62798;SDS011;48842;51.046;13.796;2023-07-30T08:57:30;2.80;;;1.70;;
62798;SDS011;48842;51.046;13.796;2023-07-30T09:00:05;4.30;;;2.10;;
62798;SDS011;48842;51.046;13.796;2023-07-30T09:05:04;2.23;;;1.73;;
62798;SDS011;48842;51.046;13.796;2023-07-30T09:07:30;3.67;;;2.20;;
62798;SDS011;48842;51.046;13.796;2023-07-30T09:09:56;2.20;;;2.00;;
62798;SDS011;48842;51.046;13.796;2023-07-30T09:12:31;3.17;;;2.30;;
62798;SDS011;48842;51.046;13.796;2023-07-30T09:15:04;2.03;;;1.93;;
62798;SDS011;48842;51.046;13.796;2023-07-30T09:17:32;4.13;;;2.00;;
62798;SDS011;48842;51.046;13.796;2023-07-30T09:20:01;1.90;;;1.80;;
62798;SDS011;48842;51.046;13.796;2023-07-30T09:22:28;2.70;;;1.83;;
62798;SDS011;48842;51.046;13.796;2023-07-30T09:24:56;1.50;;;1.40;;
62798;SDS011;48842;51.046;13.796;2023-07-30T09:27:24;2.73;;;1.93;;
62798;SDS011;48842;51.046;13.796;2023-07-30T09:29:57;4.47;;;1.80;;
62798;SDS011;48842;51.046;13.796;2023-07-30T09:32:27;1.90;;;1.80;;
62798;SDS011;48842;51.046;13.796;2023-07-30T09:34:53;4.00;;;1.70;;
62798;SDS011;48842;51.046;13.796;2023-07-30T09:37:19;3.00;;;2.63;;
62798;SDS011;48842;51.046;13.796;2023-07-30T09:39:44;3.77;;;1.83;;
62798;SDS011;48842;51.046;13.796;2023-07-30T09:42:12;1.97;;;1.60;;
62798;SDS011;48842;51.046;13.796;2023-07-30T09:44:37;2.03;;;1.50;;
62798;SDS011;48842;51.046;13.796;2023-07-30T09:47:04;4.50;;;2.10;;
62798;SDS011;48842;51.046;13.796;2023-07-30T09:49:32;2.70;;;2.50;;
62798;SDS011;48842;51.046;13.796;2023-07-30T09:51:57;2.33;;;1.93;;
62798;SDS011;48842;51.046;13.796;2023-07-30T09:54:23;6.00;;;2.03;;
62798;SDS011;48842;51.046;13.796;2023-07-30T09:56:48;3.77;;;2.20;;
62798;SDS011;48842;51.046;13.796;2023-07-30T09:59:13;2.10;;;1.90;;
62798;SDS011;48842;51.046;13.796;2023-07-30T10:01:41;2.23;;;2.13;;
62798;SDS011;48842;51.046;13.796;2023-07-30T10:04:09;2.60;;;1.87;;
62798;SDS011;48842;51.046;13.796;2023-07-30T10:06:38;1.97;;;1.87;;
62798;SDS011;48842;51.046;13.796;2023-07-30T10:09:06;2.27;;;2.17;;
62798;SDS011;48842;51.046;13.796;2023-07-30T10:11:34;4.10;;;2.47;;
62798;SDS011;48842;51.046;13.796;2023-07-30T10:14:00;2.93;;;2.73;;
62798;SDS011;48842;51.046;13.796;2023-07-30T10:16:26;2.67;;;2.57;;
62798;SDS011;48842;51.046;13.796;2023-07-30T10:18:55;8.10;;;2.07;;
62798;SDS011;48842;51.046;13.796;2023-07-30T10:21:23;2.90;;;2.30;;
62798;SDS011;48842;51.046;13.796;2023-07-30T10:24:01;1.97;;;1.87;;
62798;SDS011;48842;51.046;13.796;2023-07-30T10:26:28;3.50;;;2.90;;
62798;SDS011;48842;51.046;13.796;2023-07-30T10:31:41;2.20;;;2.10;;
62798;SDS011;48842;51.046;13.796;2023-07-30T10:34:08;2.73;;;2.60;;
62798;SDS011;48842;51.046;13.796;2023-07-30T10:36:44;2.10;;;2.00;;
62798;SDS011;48842;51.046;13.796;2023-07-30T10:39:15;2.47;;;2.30;;
62798;SDS011;48842;51.046;13.796;2023-07-30T10:41:43;2.33;;;2.23;;
62798;SDS011;48842;51.046;13.796;2023-07-30T10:44:30;1.90;;;1.80;;
62798;SDS011;48842;51.046;13.796;2023-07-30T10:46:57;7.03;;;3.10;;
62798;SDS011;48842;51.046;13.796;2023-07-30T10:49:24;1.73;;;1.63;;
62798;SDS011;48842;51.046;13.796;2023-07-30T10:51:53;2.20;;;2.00;;
62798;SDS011;48842;51.046;13.796;2023-07-30T10:54:20;2.43;;;2.30;;
62798;SDS011;48842;51.046;13.796;2023-07-30T10:56:46;2.00;;;1.90;;
62798;SDS011;48842;51.046;13.796;2023-07-30T10:59:11;2.20;;;2.10;;
62798;SDS011;48842;51.046;13.796;2023-07-30T11:01:38;1.90;;;1.80;;
62798;SDS011;48842;51.046;13.796;2023-07-30T11:04:08;2.07;;;1.87;;
62798;SDS011;48842;51.046;13.796;2023-07-30T11:06:34;3.27;;;2.33;;
62798;SDS011;48842;51.046;13.796;2023-07-30T11:08:59;1.90;;;1.80;;
62798;SDS011;48842;51.046;13.796;2023-07-30T11:11:25;3.10;;;1.67;;
62798;SDS011;48842;51.046;13.796;2023-07-30T11:13:50;2.00;;;1.90;;
62798;SDS011;48842;51.046;13.796;2023-07-30T11:16:16;1.80;;;1.70;;
62798;SDS011;48842;51.046;13.796;2023-07-30T11:18:42;1.70;;;1.60;;
62798;SDS011;48842;51.046;13.796;2023-07-30T11:21:12;2.47;;;2.10;;
62798;SDS011;48842;51.046;13.796;2023-07-30T11:23:40;1.93;;;1.83;;
62798;SDS011;48842;51.046;13.796;2023-07-30T11:26:12;1.97;;;1.80;;
62798;SDS011;48842;51.046;13.796;2023-07-30T11:28:42;3.53;;;2.03;;
62798;SDS011;48842;51.046;13.796;2023-07-30T11:31:08;2.30;;;1.40;;
62798;SDS011;48842;51.046;13.796;2023-07-30T11:33:46;3.03;;;1.50;;
62798;SDS011;48842;51.046;13.796;2023-07-30T11:36:15;1.50;;;1.40;;
62798;SDS011;48842;51.046;13.796;2023-07-30T11:38:43;1.60;;;1.50;;
62798;SDS011;48842;51.046;13.796;2023-07-30T11:41:10;1.10;;;1.10;;
62798;SDS011;48842;51.046;13.796;2023-07-30T11:43:37;1.30;;;1.20;;
62798;SDS011;48842;51.046;13.796;2023-07-30T11:46:07;5.60;;;1.37;;
62798;SDS011;48842;51.046;13.796;2023-07-30T11:48:33;2.10;;;1.10;;
62798;SDS011;48842;51.046;13.796;2023-07-30T11:50:58;1.40;;;1.30;;
62798;SDS011;48842;51.046;13.796;2023-07-30T11:53:29;2.40;;;1.20;;
62798;SDS011;48842;51.046;13.796;2023-07-30T11:56:16;1.83;;;1.20;;
62798;SDS011;48842;51.046;13.796;2023-07-30T11:58:47;1.30;;;1.20;;
62798;SDS011;48842;51.046;13.796;2023-07-30T12:01:13;1.57;;;1.20;;
62798;SDS011;48842;51.046;13.796;2023-07-30T12:03:42;1.00;;;1.00;;
62798;SDS011;48842;51.046;13.796;2023-07-30T12:06:09;2.90;;;1.87;;
62798;SDS011;48842;51.046;13.796;2023-07-30T12:08:35;0.90;;;0.90;;
62798;SDS011;48842;51.046;13.796;2023-07-30T12:11:04;1.10;;;0.90;;
62798;SDS011;48842;51.046;13.796;2023-07-30T12:13:31;1.37;;;1.27;;
62798;SDS011;48842;51.046;13.796;2023-07-30T12:15:57;1.47;;;0.90;;
62798;SDS011;48842;51.046;13.796;2023-07-30T12:18:24;1.60;;;1.10;;
62798;SDS011;48842;51.046;13.796;2023-07-30T12:20:51;1.30;;;1.20;;
62798;SDS011;48842;51.046;13.796;2023-07-30T12:23:18;1.67;;;1.07;;
62798;SDS011;48842;51.046;13.796;2023-07-30T12:25:45;2.87;;;0.97;;
62798;SDS011;48842;51.046;13.796;2023-07-30T12:28:11;0.87;;;0.87;;
62798;SDS011;48842;51.046;13.796;2023-07-30T12:30:37;1.10;;;0.90;;
62798;SDS011;48842;51.046;13.796;2023-07-30T12:33:02;1.57;;;1.00;;
62798;SDS011;48842;51.046;13.796;2023-07-30T12:35:28;1.30;;;1.20;;
62798;SDS011;48842;51.046;13.796;2023-07-30T12:37:54;1.30;;;1.20;;
62798;SDS011;48842;51.046;13.796;2023-07-30T12:40:19;1.00;;;0.90;;
62798;SDS011;48842;51.046;13.796;2023-07-30T12:42:44;2.60;;;1.03;;
62798;SDS011;48842;51.046;13.796;2023-07-30T12:45:10;1.30;;;1.03;;
62798;SDS011;48842;51.046;13.796;2023-07-30T12:47:36;1.27;;;1.00;;
62798;SDS011;48842;51.046;13.796;2023-07-30T12:50:01;0.97;;;0.97;;
62798;SDS011;48842;51.046;13.796;2023-07-30T12:52:27;2.43;;;1.20;;
62798;SDS011;48842;51.046;13.796;2023-07-30T12:54:53;1.30;;;1.20;;
62798;SDS011;48842;51.046;13.796;2023-07-30T12:57:18;1.20;;;1.10;;
62798;SDS011;48842;51.046;13.796;2023-07-30T12:59:43;1.17;;;1.03;;
62798;SDS011;48842;51.046;13.796;2023-07-30T13:02:09;1.00;;;1.00;;
62798;SDS011;48842;51.046;13.796;2023-07-30T13:04:34;0.97;;;0.97;;
62798;SDS011;48842;51.046;13.796;2023-07-30T13:06:59;2.50;;;1.10;;
62798;SDS011;48842;51.046;13.796;2023-07-30T13:09:24;1.80;;;0.80;;
62798;SDS011;48842;51.046;13.796;2023-07-30T13:11:50;1.87;;;1.13;;
62798;SDS011;48842;51.046;13.796;2023-07-30T13:14:15;1.37;;;1.10;;
62798;SDS011;48842;51.046;13.796;2023-07-30T13:16:40;1.53;;;1.20;;
62798;SDS011;48842;51.046;13.796;2023-07-30T13:19:05;0.90;;;0.90;;
62798;SDS011;48842;51.046;13.796;2023-07-30T13:21:31;1.07;;;1.00;;
62798;SDS011;48842;51.046;13.796;2023-07-30T13:23:56;2.57;;;0.90;;
62798;SDS011;48842;51.046;13.796;2023-07-30T13:26:21;1.77;;;1.20;;
62798;SDS011;48842;51.046;13.796;2023-07-30T13:28:47;2.50;;;1.00;;
62798;SDS011;48842;51.046;13.796;2023-07-30T13:31:14;1.57;;;1.00;;
62798;SDS011;48842;51.046;13.796;2023-07-30T13:33:39;2.37;;;1.10;;
62798;SDS011;48842;51.046;13.796;2023-07-30T13:36:05;1.00;;;1.00;;
62798;SDS011;48842;51.046;13.796;2023-07-30T13:38:30;0.93;;;0.87;;
62798;SDS011;48842;51.046;13.796;2023-07-30T13:40:56;1.23;;;0.87;;
62798;SDS011;48842;51.046;13.796;2023-07-30T13:43:21;1.30;;;1.20;;
62798;SDS011;48842;51.046;13.796;2023-07-30T13:45:47;1.00;;;1.00;;
62798;SDS011;48842;51.046;13.796;2023-07-30T13:48:15;0.90;;;0.90;;
62798;SDS011;48842;51.046;13.796;2023-07-30T13:50:40;0.80;;;0.80;;
62798;SDS011;48842;51.046;13.796;2023-07-30T13:53:06;0.73;;;0.73;;
62798;SDS011;48842;51.046;13.796;2023-07-30T13:55:31;1.00;;;1.00;;
62798;SDS011;48842;51.046;13.796;2023-07-30T13:57:56;1.10;;;1.00;;
62798;SDS011;48842;51.046;13.796;2023-07-30T14:00:21;0.70;;;0.70;;
62798;SDS011;48842;51.046;13.796;2023-07-30T14:02:47;2.10;;;0.80;;
62798;SDS011;48842;51.046;13.796;2023-07-30T14:05:13;2.50;;;1.57;;
62798;SDS011;48842;51.046;13.796;2023-07-30T14:07:38;1.07;;;1.00;;
62798;SDS011;48842;51.046;13.796;2023-07-30T14:10:05;1.40;;;1.13;;
62798;SDS011;48842;51.046;13.796;2023-07-30T14:12:30;1.57;;;0.77;;
62798;SDS011;48842;51.046;13.796;2023-07-30T14:14:56;0.93;;;0.93;;
62798;SDS011;48842;51.046;13.796;2023-07-30T14:17:21;1.50;;;1.40;;
62798;SDS011;48842;51.046;13.796;2023-07-30T14:19:48;1.13;;;0.80;;
62798;SDS011;48842;51.046;13.796;2023-07-30T14:22:13;1.13;;;0.90;;
62798;SDS011;48842;51.046;13.796;2023-07-30T14:24:38;1.10;;;0.80;;
62798;SDS011;48842;51.046;13.796;2023-07-30T14:27:05;1.30;;;1.20;;
62798;SDS011;48842;51.046;13.796;2023-07-30T14:29:30;1.10;;;1.00;;
62798;SDS011;48842;51.046;13.796;2023-07-30T14:31:55;1.17;;;1.07;;